createdAt,value
2022-12-16T00:00:14.881Z,27.10
2022-12-16T00:02:42.145Z,27.80
2022-12-16T00:05:09.139Z,29.00
2022-12-16T00:07:35.833Z,27.57
2022-12-16T00:10:03.033Z,28.07
2022-12-16T00:12:29.779Z,27.80
2022-12-16T00:14:57.025Z,27.00
2022-12-16T00:17:23.969Z,27.40
2022-12-16T00:19:50.810Z,29.37
2022-12-16T00:22:17.594Z,29.70
2022-12-16T00:24:44.397Z,27.33
2022-12-16T00:27:11.228Z,24.00
2022-12-16T00:29:38.089Z,28.30
2022-12-16T00:32:06.406Z,27.57
2022-12-16T00:34:33.407Z,27.17
2022-12-16T00:37:00.200Z,28.30
2022-12-16T00:39:27.033Z,27.10
2022-12-16T00:41:53.817Z,28.43
2022-12-16T00:44:21.721Z,28.20
2022-12-16T00:46:48.558Z,27.80
2022-12-16T00:49:15.332Z,28.57
2022-12-16T00:51:42.223Z,28.83
2022-12-16T00:54:08.908Z,26.87
2022-12-16T00:56:35.806Z,28.00
2022-12-16T00:59:02.547Z,25.80
2022-12-16T01:01:29.488Z,26.07
2022-12-16T01:03:57.992Z,26.10
2022-12-16T01:06:24.864Z,27.10
2022-12-16T01:08:51.678Z,24.73
2022-12-16T01:11:20.055Z,24.50
2022-12-16T01:13:50.477Z,23.90
2022-12-16T01:16:19.611Z,25.07
2022-12-16T01:18:46.420Z,25.73
2022-12-16T01:21:15.381Z,26.07
2022-12-16T01:23:42.226Z,24.70
2022-12-16T01:26:15.454Z,26.33
2022-12-16T01:28:42.354Z,27.37
2022-12-16T01:31:09.151Z,26.97
2022-12-16T01:33:36.212Z,27.20
2022-12-16T01:36:06.077Z,26.80
2022-12-16T01:38:34.025Z,25.73
2022-12-16T01:41:00.862Z,24.87
2022-12-16T01:43:30.541Z,25.00
2022-12-16T01:46:13.807Z,24.37
2022-12-16T01:48:58.987Z,26.20
2022-12-16T01:51:36.188Z,24.10
2022-12-16T01:54:10.107Z,25.13
2022-12-16T01:56:41.892Z,25.10
2022-12-16T01:59:09.114Z,25.70
2022-12-16T02:01:36.000Z,24.67
2022-12-16T02:04:03.861Z,25.43
2022-12-16T02:06:31.302Z,26.33
2022-12-16T02:09:03.152Z,25.87
2022-12-16T02:11:54.458Z,25.40
2022-12-16T02:14:40.999Z,24.40
2022-12-16T02:17:19.666Z,24.77
2022-12-16T02:20:04.788Z,24.40
2022-12-16T02:23:10.391Z,23.70
2022-12-16T02:26:01.564Z,22.60
2022-12-16T02:28:48.948Z,23.90
2022-12-16T02:31:25.253Z,24.23
2022-12-16T02:34:10.117Z,23.30
2022-12-16T02:37:08.010Z,24.60
2022-12-16T02:39:38.973Z,24.27
2022-12-16T02:42:32.111Z,24.17
2022-12-16T02:45:07.081Z,25.30
2022-12-16T02:47:33.961Z,24.17
2022-12-16T02:50:00.679Z,23.67
2022-12-16T02:52:30.929Z,26.93
2022-12-16T02:55:04.794Z,25.10
2022-12-16T02:58:12.915Z,24.97
2022-12-16T03:01:09.742Z,23.53
2022-12-16T03:03:48.332Z,23.80
2022-12-16T03:06:18.719Z,21.77
2022-12-16T03:08:51.745Z,24.20
2022-12-16T03:11:18.690Z,22.63
2022-12-16T03:13:50.529Z,22.80
2022-12-16T03:16:20.879Z,23.80
2022-12-16T03:18:52.922Z,23.90
2022-12-16T03:21:25.354Z,21.73
2022-12-16T03:23:57.487Z,23.00
2022-12-16T03:26:43.502Z,21.87
2022-12-16T03:29:44.180Z,23.53
2022-12-16T03:32:36.105Z,22.13
2022-12-16T03:35:24.432Z,22.00
2022-12-16T03:37:55.419Z,22.10
2022-12-16T03:40:24.142Z,22.17
2022-12-16T03:42:53.704Z,20.93
2022-12-16T03:45:29.167Z,23.00
2022-12-16T03:47:59.392Z,22.47
2022-12-16T03:50:30.209Z,22.57
2022-12-16T03:52:56.916Z,23.90
2022-12-16T03:55:24.275Z,22.80
2022-12-16T03:57:51.094Z,24.70
2022-12-16T04:00:18.507Z,23.50
2022-12-16T04:02:45.400Z,24.13
2022-12-16T04:05:12.336Z,22.43
2022-12-16T04:07:39.175Z,21.63
2022-12-16T04:10:06.885Z,22.50
2022-12-16T04:12:52.404Z,23.50
2022-12-16T04:15:38.052Z,23.07
2022-12-16T04:18:24.760Z,21.67
2022-12-16T04:21:13.067Z,20.00
2022-12-16T04:24:07.344Z,21.57
2022-12-16T04:26:57.274Z,21.77
2022-12-16T04:29:24.383Z,20.20
2022-12-16T04:31:52.080Z,22.87
2022-12-16T04:34:29.248Z,23.07
2022-12-16T04:37:20.015Z,22.60
2022-12-16T04:40:06.289Z,20.73
2022-12-16T04:42:51.828Z,20.80
2022-12-16T04:45:37.199Z,21.87
2022-12-16T04:48:22.883Z,19.53
2022-12-16T04:51:08.355Z,21.40
2022-12-16T04:53:53.891Z,21.33
2022-12-16T04:56:39.302Z,21.53
2022-12-16T04:59:24.740Z,19.73
2022-12-16T05:02:10.155Z,19.90
2022-12-16T05:04:55.451Z,21.90
2022-12-16T05:07:40.957Z,20.70
2022-12-16T05:10:27.302Z,20.77
2022-12-16T05:13:13.336Z,20.33
2022-12-16T05:15:58.974Z,21.60
2022-12-16T05:18:44.444Z,19.43
2022-12-16T05:21:30.037Z,19.10
2022-12-16T05:24:15.522Z,20.53
2022-12-16T05:27:01.251Z,20.50
2022-12-16T05:29:46.473Z,20.67
2022-12-16T05:32:32.026Z,19.37
2022-12-16T05:35:17.828Z,20.67
2022-12-16T05:38:03.069Z,19.53
2022-12-16T05:40:48.584Z,22.90
2022-12-16T05:43:34.294Z,20.37
2022-12-16T05:46:19.874Z,21.47
2022-12-16T05:49:05.302Z,20.30
2022-12-16T05:51:50.745Z,20.50
2022-12-16T05:54:36.237Z,20.10
2022-12-16T05:57:21.619Z,20.37
2022-12-16T06:00:07.180Z,21.10
2022-12-16T06:02:52.846Z,20.80
2022-12-16T06:05:38.392Z,20.70
2022-12-16T06:08:23.820Z,21.33
2022-12-16T06:11:09.267Z,20.23
2022-12-16T06:13:54.819Z,20.33
2022-12-16T06:16:40.262Z,20.40
2022-12-16T06:19:25.826Z,20.20
2022-12-16T06:25:15.958Z,20.17
2022-12-16T06:28:01.421Z,20.30
2022-12-16T06:30:46.858Z,21.40
2022-12-16T06:33:32.717Z,21.03
2022-12-16T06:36:18.318Z,20.50
2022-12-16T06:39:03.728Z,20.00
2022-12-16T06:41:49.270Z,21.47
2022-12-16T06:44:34.719Z,21.47
2022-12-16T06:47:20.175Z,20.33
2022-12-16T06:50:05.532Z,21.03
2022-12-16T06:52:51.029Z,22.57
2022-12-16T06:55:36.412Z,22.00
2022-12-16T06:58:21.832Z,21.90
2022-12-16T07:01:07.474Z,20.30
2022-12-16T07:03:52.756Z,20.77
2022-12-16T07:06:38.176Z,20.83
2022-12-16T07:09:37.365Z,21.60
2022-12-16T07:12:22.894Z,19.77
2022-12-16T07:15:08.417Z,20.30
2022-12-16T07:17:53.905Z,22.53
2022-12-16T07:20:39.316Z,22.87
2022-12-16T07:23:24.741Z,21.03
2022-12-16T07:26:10.191Z,21.90
2022-12-16T07:28:55.766Z,19.97
2022-12-16T07:31:41.328Z,19.87
2022-12-16T07:34:26.695Z,21.67
2022-12-16T07:37:12.126Z,20.20
2022-12-16T07:39:57.546Z,21.30
2022-12-16T07:42:43.098Z,18.80
2022-12-16T07:45:29.577Z,18.93
2022-12-16T07:50:45.783Z,21.10
2022-12-16T07:53:31.596Z,22.60
2022-12-16T07:56:17.151Z,22.00
2022-12-16T07:59:02.661Z,22.13
2022-12-16T08:01:58.796Z,19.50
2022-12-16T08:04:44.401Z,23.20
2022-12-16T08:07:29.851Z,21.57
2022-12-16T08:10:15.494Z,24.93
2022-12-16T08:13:01.072Z,20.60
2022-12-16T08:26:54.041Z,22.60
2022-12-16T08:29:46.424Z,24.07
2022-12-16T08:32:33.068Z,24.50
2022-12-16T08:35:18.757Z,23.47
2022-12-16T08:38:08.869Z,23.60
2022-12-16T08:40:57.440Z,24.10
2022-12-16T08:43:42.787Z,25.20
2022-12-16T08:46:28.374Z,27.10
2022-12-16T08:49:13.549Z,25.93
2022-12-16T08:51:59.113Z,24.87
2022-12-16T08:54:44.388Z,23.70
2022-12-16T08:57:29.856Z,22.90
2022-12-16T09:00:15.279Z,23.57
2022-12-16T09:03:00.820Z,24.73
2022-12-16T09:05:46.686Z,24.30
2022-12-16T09:08:31.947Z,24.30
2022-12-16T09:11:20.668Z,23.03
2022-12-16T09:14:06.238Z,24.10
2022-12-16T09:16:51.630Z,23.87
2022-12-16T09:19:37.182Z,23.90
2022-12-16T09:22:22.839Z,24.93
2022-12-16T09:25:08.236Z,24.07
2022-12-16T09:27:53.647Z,24.90
2022-12-16T09:30:39.063Z,24.03
2022-12-16T09:33:26.177Z,23.40
2022-12-16T09:36:11.713Z,25.43
2022-12-16T09:38:57.096Z,24.60
2022-12-16T09:41:45.308Z,25.30
2022-12-16T09:45:00.635Z,23.50
2022-12-16T09:47:53.700Z,24.23
2022-12-16T09:50:44.301Z,25.73
2022-12-16T09:53:36.475Z,24.50
2022-12-16T09:56:25.977Z,27.30
2022-12-16T09:59:18.399Z,25.60
2022-12-16T10:02:04.197Z,25.37
2022-12-16T10:04:49.565Z,27.10
2022-12-16T10:07:39.756Z,24.60
2022-12-16T10:10:36.835Z,26.87
2022-12-16T10:13:43.019Z,24.17
2022-12-16T10:16:43.178Z,25.00
2022-12-16T10:19:39.202Z,25.70
2022-12-16T10:22:59.788Z,26.20
2022-12-16T10:25:56.324Z,24.77
2022-12-16T10:29:04.553Z,24.73
2022-12-16T10:31:51.096Z,25.13
2022-12-16T10:34:51.193Z,25.90
2022-12-16T10:38:02.965Z,25.77
2022-12-16T10:40:52.389Z,26.97
2022-12-16T10:43:56.837Z,27.70
2022-12-16T10:46:46.435Z,28.00
2022-12-16T10:49:34.825Z,26.40
2022-12-16T10:52:20.643Z,28.67
2022-12-16T10:55:17.247Z,25.80
2022-12-16T10:58:17.993Z,26.27
2022-12-16T11:01:06.634Z,26.33
2022-12-16T11:03:54.456Z,27.33
2022-12-16T11:07:06.248Z,25.97
2022-12-16T11:09:52.779Z,26.17
2022-12-16T11:12:51.175Z,28.60
2022-12-16T11:15:47.117Z,28.13
2022-12-16T11:18:41.074Z,29.20
2022-12-16T11:21:38.290Z,27.47
2022-12-16T11:24:30.407Z,27.53
2022-12-16T11:27:24.227Z,25.40
2022-12-16T11:30:28.703Z,27.40
2022-12-16T11:33:17.135Z,27.53
2022-12-16T11:36:07.024Z,27.77
2022-12-16T11:39:01.410Z,28.60
2022-12-16T11:41:54.505Z,30.20
2022-12-16T11:44:54.993Z,31.30
2022-12-16T11:47:53.987Z,28.83
2022-12-16T11:50:45.522Z,30.70
2022-12-16T11:54:08.502Z,30.03
2022-12-16T11:56:57.749Z,29.80
2022-12-16T11:59:52.671Z,29.77
2022-12-16T12:02:57.085Z,31.30
2022-12-16T12:05:57.311Z,28.40
2022-12-16T12:09:00.687Z,30.57
2022-12-16T12:11:56.779Z,32.57
2022-12-16T12:14:50.987Z,29.40
2022-12-16T12:18:15.951Z,29.50
2022-12-16T12:21:25.898Z,29.53
2022-12-16T12:24:22.943Z,30.33
2022-12-16T12:27:20.667Z,30.70
2022-12-16T12:30:24.955Z,30.13
2022-12-16T12:33:50.424Z,31.83
2022-12-16T12:37:18.544Z,31.33
2022-12-16T12:40:20.501Z,32.00
2022-12-16T12:43:10.580Z,33.17
2022-12-16T12:46:20.523Z,35.57
2022-12-16T12:49:29.248Z,33.40
2022-12-16T12:52:25.265Z,32.90
2022-12-16T12:55:40.077Z,33.80
2022-12-16T12:58:26.174Z,35.90
2022-12-16T13:01:15.392Z,34.67
2022-12-16T13:04:24.849Z,33.63
2022-12-16T13:07:11.861Z,32.53
2022-12-16T13:09:57.812Z,35.60
2022-12-16T13:12:50.436Z,35.20
2022-12-16T13:15:53.724Z,37.00
2022-12-16T13:18:42.304Z,33.03
2022-12-16T13:21:56.297Z,35.80
2022-12-16T13:24:41.759Z,34.40
2022-12-16T13:27:35.008Z,36.43
2022-12-16T13:30:29.025Z,33.27
2022-12-16T13:33:24.718Z,32.97
2022-12-16T13:36:18.419Z,33.83
2022-12-16T13:39:06.559Z,33.47
2022-12-16T13:41:52.127Z,32.83
2022-12-16T13:45:00.211Z,32.00
2022-12-16T13:48:00.525Z,33.50
2022-12-16T13:51:00.862Z,34.00
2022-12-16T13:53:50.207Z,32.07
2022-12-16T13:56:56.796Z,31.23
2022-12-16T13:59:46.767Z,30.37
2022-12-16T14:02:40.134Z,31.20
2022-12-16T14:05:51.405Z,31.50
2022-12-16T14:08:39.619Z,30.60
2022-12-16T14:11:34.815Z,31.00
2022-12-16T14:14:33.072Z,29.87
2022-12-16T14:17:23.225Z,30.47
2022-12-16T14:20:21.723Z,28.20
2022-12-16T14:23:55.444Z,30.37
2022-12-16T14:26:34.785Z,30.80
2022-12-16T14:29:31.366Z,31.53
2022-12-16T14:32:16.927Z,29.07
2022-12-16T14:35:02.123Z,25.73
2022-12-16T14:37:56.142Z,26.50
2022-12-16T14:40:47.665Z,27.70
2022-12-16T14:43:36.681Z,29.40
2022-12-16T14:46:22.501Z,28.97
2022-12-16T14:49:09.367Z,27.90
2022-12-16T14:52:05.069Z,29.60
2022-12-16T14:54:58.725Z,29.17
2022-12-16T14:57:48.892Z,27.20
2022-12-16T15:00:42.794Z,28.90
2022-12-16T15:03:41.546Z,27.70
2022-12-16T15:06:32.785Z,25.40
2022-12-16T15:09:22.674Z,26.87
2022-12-16T15:12:12.408Z,27.07
2022-12-16T15:14:59.449Z,28.20
2022-12-16T15:18:10.149Z,28.33
2022-12-16T15:21:00.176Z,30.60
2022-12-16T15:23:49.914Z,28.23
2022-12-16T15:26:43.758Z,28.10
2022-12-16T15:29:54.904Z,27.37
2022-12-16T15:32:46.346Z,30.00
2022-12-16T15:36:10.390Z,28.20
2022-12-16T15:38:55.803Z,28.93
2022-12-16T15:41:53.474Z,26.53
2022-12-16T15:44:44.844Z,28.97
2022-12-16T15:47:53.752Z,28.00
2022-12-16T15:50:42.866Z,26.20
2022-12-16T15:53:51.141Z,29.77
2022-12-16T15:56:42.072Z,28.77
2022-12-16T15:59:50.456Z,30.60
2022-12-16T16:02:45.807Z,30.30
2022-12-16T16:05:33.282Z,29.17
2022-12-16T16:08:18.637Z,28.57
2022-12-16T16:11:04.633Z,28.77
2022-12-16T16:13:50.421Z,31.10
2022-12-16T16:16:35.791Z,30.70
2022-12-16T16:19:21.327Z,29.53
2022-12-16T16:22:07.923Z,29.70
2022-12-16T16:24:53.308Z,27.27
2022-12-16T16:27:38.942Z,27.87
2022-12-16T16:30:25.000Z,28.27
2022-12-16T16:33:10.473Z,27.80
2022-12-16T16:35:56.024Z,28.50
2022-12-16T16:38:41.502Z,29.63
2022-12-16T16:41:33.602Z,30.30
2022-12-16T16:44:20.220Z,29.50
2022-12-16T16:47:05.662Z,29.27
2022-12-16T16:49:59.569Z,28.70
2022-12-16T16:52:46.745Z,29.23
2022-12-16T16:55:41.449Z,30.10
2022-12-16T16:58:43.523Z,31.60
2022-12-16T17:01:32.784Z,31.10
2022-12-16T17:04:18.241Z,32.03
2022-12-16T17:07:03.474Z,34.83
2022-12-16T17:10:08.853Z,33.57
2022-12-16T17:12:56.559Z,32.67
2022-12-16T17:15:50.909Z,29.40
2022-12-16T17:18:41.774Z,31.07
2022-12-16T17:21:30.241Z,33.20
2022-12-16T17:24:32.520Z,30.53
2022-12-16T17:27:25.332Z,31.40
2022-12-16T17:30:10.894Z,30.63
2022-12-16T17:32:56.343Z,28.50
2022-12-16T17:35:41.778Z,30.60
2022-12-16T17:38:30.696Z,30.57
2022-12-16T17:41:16.306Z,28.07
2022-12-16T17:44:01.628Z,29.70
2022-12-16T17:46:47.183Z,30.80
2022-12-16T17:49:32.332Z,29.43
2022-12-16T17:52:17.868Z,28.13
2022-12-16T17:55:03.250Z,28.27
2022-12-16T17:57:48.707Z,27.20
2022-12-16T18:00:34.744Z,30.20
2022-12-16T18:03:20.207Z,28.10
2022-12-16T18:06:05.482Z,29.73
2022-12-16T18:08:51.501Z,27.33
2022-12-16T18:11:38.935Z,27.40
2022-12-16T18:14:24.638Z,32.17
2022-12-16T18:17:09.961Z,29.73
2022-12-16T18:19:55.389Z,29.20
2022-12-16T18:22:40.952Z,29.03
2022-12-16T18:28:04.136Z,27.00
2022-12-16T18:30:49.612Z,28.30
2022-12-16T18:33:35.449Z,27.07
2022-12-16T18:36:21.264Z,24.83
2022-12-16T18:39:06.832Z,27.63
2022-12-16T18:41:52.247Z,29.77
2022-12-16T18:44:37.697Z,28.33
2022-12-16T18:47:23.184Z,29.73
2022-12-16T18:50:32.777Z,29.87
2022-12-16T18:53:21.319Z,31.20
2022-12-16T18:56:06.907Z,30.20
2022-12-16T18:58:54.111Z,30.20
2022-12-16T19:01:39.599Z,30.40
2022-12-16T19:04:24.972Z,28.20
2022-12-16T19:07:10.337Z,30.10
2022-12-16T19:09:55.872Z,31.10
2022-12-16T19:12:41.139Z,32.40
2022-12-16T19:15:26.652Z,30.60
2022-12-16T19:18:12.144Z,29.07
2022-12-16T19:20:57.680Z,28.43
2022-12-16T19:23:43.190Z,26.60
2022-12-16T19:26:29.068Z,27.17
2022-12-16T19:29:14.600Z,27.50
2022-12-16T19:32:00.154Z,26.90
2022-12-16T19:34:45.588Z,27.80
2022-12-16T19:37:31.104Z,27.93
2022-12-16T19:40:16.352Z,26.93
2022-12-16T19:43:01.805Z,25.87
2022-12-16T19:45:47.375Z,29.63
2022-12-16T19:48:32.662Z,28.70
2022-12-16T19:51:19.704Z,26.57
2022-12-16T19:54:05.800Z,28.07
2022-12-16T19:56:51.860Z,29.37
2022-12-16T19:59:38.505Z,29.37
2022-12-16T20:02:25.617Z,28.17
2022-12-16T20:05:11.231Z,26.70
2022-12-16T20:07:56.550Z,28.70
2022-12-16T20:10:41.653Z,30.57
2022-12-16T20:13:30.261Z,29.47
2022-12-16T20:16:24.039Z,31.30
2022-12-16T20:19:13.010Z,28.43
2022-12-16T20:22:05.818Z,32.30
2022-12-16T20:25:06.160Z,33.10
2022-12-16T20:27:51.264Z,31.93
2022-12-16T20:30:37.175Z,28.07
2022-12-16T20:33:22.796Z,29.47
2022-12-16T20:36:18.984Z,28.53
2022-12-16T20:39:05.569Z,29.83
2022-12-16T20:41:51.802Z,27.70
2022-12-16T20:44:37.012Z,28.97
2022-12-16T20:47:22.733Z,28.10
2022-12-16T20:50:08.038Z,27.10
2022-12-16T20:52:54.598Z,27.47
2022-12-16T20:55:41.952Z,27.80
2022-12-16T20:58:27.446Z,31.17
2022-12-16T21:01:14.063Z,26.80
2022-12-16T21:03:59.563Z,25.60
2022-12-16T21:06:45.238Z,26.60
2022-12-16T21:09:30.692Z,27.43
2022-12-16T21:12:16.172Z,30.13
2022-12-16T21:15:01.762Z,26.07
2022-12-16T21:17:47.368Z,27.90
2022-12-16T21:20:33.385Z,27.30
2022-12-16T21:23:20.434Z,28.07
2022-12-16T21:26:06.007Z,26.00
2022-12-16T21:28:51.813Z,30.37
2022-12-16T21:31:37.384Z,29.00
2022-12-16T21:34:23.931Z,28.60
2022-12-16T21:37:09.889Z,29.70
2022-12-16T21:39:55.351Z,32.27
2022-12-16T21:42:44.014Z,29.77
2022-12-16T21:45:29.843Z,28.50
2022-12-16T21:48:15.187Z,28.00
2022-12-16T21:51:00.596Z,26.27
2022-12-16T21:53:46.315Z,26.07
2022-12-16T21:56:32.203Z,28.40
2022-12-16T21:59:17.680Z,25.17
2022-12-16T22:02:04.572Z,24.87
2022-12-16T22:04:49.787Z,25.07
2022-12-16T22:07:35.303Z,24.10
2022-12-16T22:10:20.674Z,24.80
2022-12-16T22:13:06.035Z,24.30
2022-12-16T22:15:51.560Z,25.27
2022-12-16T22:18:37.668Z,24.87
2022-12-16T22:21:24.419Z,24.87
2022-12-16T22:24:11.157Z,25.67
2022-12-16T22:26:56.767Z,25.00
2022-12-16T22:29:42.142Z,23.37
2022-12-16T22:32:27.484Z,25.03
2022-12-16T22:35:13.040Z,24.67
2022-12-16T22:37:58.702Z,23.40
2022-12-16T22:40:44.257Z,25.17
2022-12-16T22:43:29.750Z,23.33
2022-12-16T22:46:21.531Z,25.23
2022-12-16T22:49:07.638Z,23.13
2022-12-16T22:51:53.039Z,23.37
2022-12-16T22:54:39.647Z,24.57
2022-12-16T22:57:29.688Z,24.10
2022-12-16T23:00:15.340Z,25.80
2022-12-16T23:03:00.826Z,26.03
2022-12-16T23:05:46.359Z,23.57
2022-12-16T23:08:31.869Z,25.47
2022-12-16T23:11:18.459Z,23.30
2022-12-16T23:14:04.261Z,24.63
2022-12-16T23:16:49.453Z,23.10
2022-12-16T23:19:35.032Z,23.40
2022-12-16T23:22:20.191Z,25.10
2022-12-16T23:25:05.571Z,23.70
2022-12-16T23:27:51.055Z,24.63
2022-12-16T23:30:37.444Z,24.10
2022-12-16T23:33:22.978Z,24.57
2022-12-16T23:36:08.176Z,24.40
2022-12-16T23:38:53.800Z,25.40
2022-12-16T23:41:42.123Z,22.00
2022-12-16T23:44:27.610Z,24.57
2022-12-16T23:47:12.686Z,23.60
2022-12-16T23:49:58.225Z,23.07
2022-12-16T23:52:43.576Z,24.93
2022-12-16T23:55:29.104Z,23.10
2022-12-16T23:58:18.914Z,24.97
